sensor_id;sensor_type;location;lat;lon;timestamp;pressure;altitude;pressure_sealevel;temperature
56286;BMP180;42191;47.562;9.686;2022-11-20T00:01:10;96414.00;;;11.70
56286;BMP180;42191;47.562;9.686;2022-11-20T00:03:37;96405.00;;;11.70
56286;BMP180;42191;47.562;9.686;2022-11-20T00:06:04;96404.00;;;11.70
56286;BMP180;42191;47.562;9.686;2022-11-20T00:08:31;96407.00;;;11.70
56286;BMP180;42191;47.562;9.686;2022-11-20T00:10:57;96409.00;;;11.70
56286;BMP180;42191;47.562;9.686;2022-11-20T00:13:23;96404.00;;;11.70
56286;BMP180;42191;47.562;9.686;2022-11-20T00:15:57;96414.00;;;11.70
56286;BMP180;42191;47.562;9.686;2022-11-20T00:18:24;96410.00;;;11.70
56286;BMP180;42191;47.562;9.686;2022-11-20T00:20:50;96404.00;;;11.80
56286;BMP180;42191;47.562;9.686;2022-11-20T00:23:16;96420.00;;;11.80
56286;BMP180;42191;47.562;9.686;2022-11-20T00:25:43;96416.00;;;11.80
56286;BMP180;42191;47.562;9.686;2022-11-20T00:28:09;96418.00;;;11.80
56286;BMP180;42191;47.562;9.686;2022-11-20T00:30:35;96416.00;;;11.80
56286;BMP180;42191;47.562;9.686;2022-11-20T00:33:01;96419.00;;;11.80
56286;BMP180;42191;47.562;9.686;2022-11-20T00:35:27;96433.00;;;11.80
56286;BMP180;42191;47.562;9.686;2022-11-20T00:37:53;96425.00;;;11.80
56286;BMP180;42191;47.562;9.686;2022-11-20T00:40:19;96431.00;;;11.80
56286;BMP180;42191;47.562;9.686;2022-11-20T00:42:45;96428.00;;;11.80
56286;BMP180;42191;47.562;9.686;2022-11-20T00:45:11;96432.00;;;11.80
56286;BMP180;42191;47.562;9.686;2022-11-20T00:47:37;96442.00;;;11.80
56286;BMP180;42191;47.562;9.686;2022-11-20T00:50:04;96446.00;;;11.80
56286;BMP180;42191;47.562;9.686;2022-11-20T00:52:30;96446.00;;;11.80
56286;BMP180;42191;47.562;9.686;2022-11-20T00:54:56;96438.00;;;11.80
56286;BMP180;42191;47.562;9.686;2022-11-20T00:57:22;96438.00;;;11.80
56286;BMP180;42191;47.562;9.686;2022-11-20T00:59:48;96445.00;;;11.80
56286;BMP180;42191;47.562;9.686;2022-11-20T01:02:14;96454.00;;;11.80
56286;BMP180;42191;47.562;9.686;2022-11-20T01:04:42;96440.00;;;11.80
56286;BMP180;42191;47.562;9.686;2022-11-20T01:07:08;96448.00;;;11.80
56286;BMP180;42191;47.562;9.686;2022-11-20T01:09:34;96448.00;;;11.80
56286;BMP180;42191;47.562;9.686;2022-11-20T01:12:00;96449.00;;;11.80
56286;BMP180;42191;47.562;9.686;2022-11-20T01:14:26;96448.00;;;11.80
56286;BMP180;42191;47.562;9.686;2022-11-20T01:16:53;96457.00;;;11.80
56286;BMP180;42191;47.562;9.686;2022-11-20T01:19:21;96458.00;;;11.70
56286;BMP180;42191;47.562;9.686;2022-11-20T01:21:50;96458.00;;;11.70
56286;BMP180;42191;47.562;9.686;2022-11-20T01:24:18;96459.00;;;11.70
56286;BMP180;42191;47.562;9.686;2022-11-20T01:26:48;96468.00;;;11.70
56286;BMP180;42191;47.562;9.686;2022-11-20T01:29:20;96455.00;;;11.70
56286;BMP180;42191;47.562;9.686;2022-11-20T01:31:46;96463.00;;;11.70
56286;BMP180;42191;47.562;9.686;2022-11-20T01:34:17;96458.00;;;11.70
56286;BMP180;42191;47.562;9.686;2022-11-20T01:36:44;96459.00;;;11.60
56286;BMP180;42191;47.562;9.686;2022-11-20T01:39:17;96463.00;;;11.60
56286;BMP180;42191;47.562;9.686;2022-11-20T01:41:45;96464.00;;;11.60
56286;BMP180;42191;47.562;9.686;2022-11-20T01:45:42;96469.00;;;11.60
56286;BMP180;42191;47.562;9.686;2022-11-20T01:47:49;96461.00;;;11.60
56286;BMP180;42191;47.562;9.686;2022-11-20T01:50:27;96455.00;;;11.60
56286;BMP180;42191;47.562;9.686;2022-11-20T01:52:58;96458.00;;;11.50
56286;BMP180;42191;47.562;9.686;2022-11-20T01:55:29;96458.00;;;11.50
56286;BMP180;42191;47.562;9.686;2022-11-20T01:57:56;96472.00;;;11.50
56286;BMP180;42191;47.562;9.686;2022-11-20T02:00:23;96462.00;;;11.50
56286;BMP180;42191;47.562;9.686;2022-11-20T02:02:59;96470.00;;;11.50
56286;BMP180;42191;47.562;9.686;2022-11-20T02:05:32;96461.00;;;11.50
56286;BMP180;42191;47.562;9.686;2022-11-20T02:08:00;96462.00;;;11.50
56286;BMP180;42191;47.562;9.686;2022-11-20T02:10:28;96460.00;;;11.50
56286;BMP180;42191;47.562;9.686;2022-11-20T02:12:55;96459.00;;;11.50
56286;BMP180;42191;47.562;9.686;2022-11-20T02:15:40;96458.00;;;11.50
56286;BMP180;42191;47.562;9.686;2022-11-20T02:18:07;96455.00;;;11.50
56286;BMP180;42191;47.562;9.686;2022-11-20T02:20:33;96456.00;;;11.50
56286;BMP180;42191;47.562;9.686;2022-11-20T02:23:03;96466.00;;;11.50
56286;BMP180;42191;47.562;9.686;2022-11-20T02:25:31;96466.00;;;11.50
56286;BMP180;42191;47.562;9.686;2022-11-20T02:27:58;96451.00;;;11.50
56286;BMP180;42191;47.562;9.686;2022-11-20T02:30:25;96462.00;;;11.50
56286;BMP180;42191;47.562;9.686;2022-11-20T02:32:51;96461.00;;;11.50
56286;BMP180;42191;47.562;9.686;2022-11-20T02:37:53;96454.00;;;11.50
56286;BMP180;42191;47.562;9.686;2022-11-20T02:40:19;96454.00;;;11.50
56286;BMP180;42191;47.562;9.686;2022-11-20T02:42:45;96456.00;;;11.40
56286;BMP180;42191;47.562;9.686;2022-11-20T02:45:12;96461.00;;;11.40
56286;BMP180;42191;47.562;9.686;2022-11-20T02:47:38;96464.00;;;11.40
56286;BMP180;42191;47.562;9.686;2022-11-20T02:50:05;96459.00;;;11.40
56286;BMP180;42191;47.562;9.686;2022-11-20T02:52:32;96470.00;;;11.40
56286;BMP180;42191;47.562;9.686;2022-11-20T02:54:58;96471.00;;;11.40
56286;BMP180;42191;47.562;9.686;2022-11-20T02:57:24;96470.00;;;11.40
56286;BMP180;42191;47.562;9.686;2022-11-20T02:59:50;96477.00;;;11.40
56286;BMP180;42191;47.562;9.686;2022-11-20T03:02:16;96468.00;;;11.40
56286;BMP180;42191;47.562;9.686;2022-11-20T03:04:42;96463.00;;;11.50
56286;BMP180;42191;47.562;9.686;2022-11-20T03:07:08;96474.00;;;11.50
56286;BMP180;42191;47.562;9.686;2022-11-20T03:09:35;96472.00;;;11.50
56286;BMP180;42191;47.562;9.686;2022-11-20T03:12:01;96464.00;;;11.50
56286;BMP180;42191;47.562;9.686;2022-11-20T03:14:27;96465.00;;;11.50
56286;BMP180;42191;47.562;9.686;2022-11-20T03:16:54;96466.00;;;11.50
56286;BMP180;42191;47.562;9.686;2022-11-20T03:19:20;96472.00;;;11.50
56286;BMP180;42191;47.562;9.686;2022-11-20T03:21:47;96469.00;;;11.50
56286;BMP180;42191;47.562;9.686;2022-11-20T03:24:13;96475.00;;;11.50
56286;BMP180;42191;47.562;9.686;2022-11-20T03:26:40;96471.00;;;11.50
56286;BMP180;42191;47.562;9.686;2022-11-20T03:29:06;96474.00;;;11.50
56286;BMP180;42191;47.562;9.686;2022-11-20T03:31:35;96475.00;;;11.50
56286;BMP180;42191;47.562;9.686;2022-11-20T03:34:02;96466.00;;;11.50
56286;BMP180;42191;47.562;9.686;2022-11-20T03:36:30;96466.00;;;11.50
56286;BMP180;42191;47.562;9.686;2022-11-20T03:38:57;96484.00;;;11.50
56286;BMP180;42191;47.562;9.686;2022-11-20T03:41:25;96484.00;;;11.50
56286;BMP180;42191;47.562;9.686;2022-11-20T03:43:57;96472.00;;;11.50
56286;BMP180;42191;47.562;9.686;2022-11-20T03:46:24;96479.00;;;11.50
56286;BMP180;42191;47.562;9.686;2022-11-20T03:48:50;96472.00;;;11.50
56286;BMP180;42191;47.562;9.686;2022-11-20T03:53:45;96488.00;;;11.50
56286;BMP180;42191;47.562;9.686;2022-11-20T03:56:13;96479.00;;;11.50
56286;BMP180;42191;47.562;9.686;2022-11-20T03:58:40;96490.00;;;11.50
56286;BMP180;42191;47.562;9.686;2022-11-20T04:01:08;96474.00;;;11.50
56286;BMP180;42191;47.562;9.686;2022-11-20T04:03:35;96485.00;;;11.50
56286;BMP180;42191;47.562;9.686;2022-11-20T04:06:10;96486.00;;;11.50
56286;BMP180;42191;47.562;9.686;2022-11-20T04:08:37;96476.00;;;11.50
56286;BMP180;42191;47.562;9.686;2022-11-20T04:11:18;96485.00;;;11.50
56286;BMP180;42191;47.562;9.686;2022-11-20T04:13:49;96472.00;;;11.50
56286;BMP180;42191;47.562;9.686;2022-11-20T04:16:16;96479.00;;;11.50
56286;BMP180;42191;47.562;9.686;2022-11-20T04:18:43;96488.00;;;11.50
56286;BMP180;42191;47.562;9.686;2022-11-20T04:21:10;96479.00;;;11.50
56286;BMP180;42191;47.562;9.686;2022-11-20T04:23:37;96480.00;;;11.50
56286;BMP180;42191;47.562;9.686;2022-11-20T04:26:08;96476.00;;;11.40
56286;BMP180;42191;47.562;9.686;2022-11-20T04:28:35;96477.00;;;11.40
56286;BMP180;42191;47.562;9.686;2022-11-20T04:31:08;96477.00;;;11.40
56286;BMP180;42191;47.562;9.686;2022-11-20T04:33:35;96484.00;;;11.30
56286;BMP180;42191;47.562;9.686;2022-11-20T04:36:03;96469.00;;;11.30
56286;BMP180;42191;47.562;9.686;2022-11-20T04:38:29;96474.00;;;11.20
56286;BMP180;42191;47.562;9.686;2022-11-20T04:41:03;96473.00;;;11.20
56286;BMP180;42191;47.562;9.686;2022-11-20T04:43:30;96473.00;;;11.10
56286;BMP180;42191;47.562;9.686;2022-11-20T04:45:57;96461.00;;;11.10
56286;BMP180;42191;47.562;9.686;2022-11-20T04:48:24;96473.00;;;11.10
56286;BMP180;42191;47.562;9.686;2022-11-20T04:50:51;96474.00;;;11.00
56286;BMP180;42191;47.562;9.686;2022-11-20T04:53:18;96484.00;;;11.00
56286;BMP180;42191;47.562;9.686;2022-11-20T04:55:45;96480.00;;;11.00
56286;BMP180;42191;47.562;9.686;2022-11-20T04:58:11;96478.00;;;10.90
56286;BMP180;42191;47.562;9.686;2022-11-20T05:00:38;96488.00;;;10.90
56286;BMP180;42191;47.562;9.686;2022-11-20T05:03:04;96477.00;;;10.90
56286;BMP180;42191;47.562;9.686;2022-11-20T05:05:30;96472.00;;;10.90
56286;BMP180;42191;47.562;9.686;2022-11-20T05:07:59;96477.00;;;10.90
56286;BMP180;42191;47.562;9.686;2022-11-20T05:10:26;96475.00;;;10.90
56286;BMP180;42191;47.562;9.686;2022-11-20T05:12:53;96487.00;;;10.90
56286;BMP180;42191;47.562;9.686;2022-11-20T05:15:19;96477.00;;;10.90
56286;BMP180;42191;47.562;9.686;2022-11-20T05:17:49;96479.00;;;10.90
56286;BMP180;42191;47.562;9.686;2022-11-20T05:20:16;96483.00;;;10.90
56286;BMP180;42191;47.562;9.686;2022-11-20T05:22:43;96495.00;;;10.90
56286;BMP180;42191;47.562;9.686;2022-11-20T05:25:09;96489.00;;;11.00
56286;BMP180;42191;47.562;9.686;2022-11-20T05:27:36;96493.00;;;11.00
56286;BMP180;42191;47.562;9.686;2022-11-20T05:30:03;96501.00;;;11.00
56286;BMP180;42191;47.562;9.686;2022-11-20T05:32:29;96489.00;;;11.00
56286;BMP180;42191;47.562;9.686;2022-11-20T05:34:55;96502.00;;;11.10
56286;BMP180;42191;47.562;9.686;2022-11-20T05:37:22;96501.00;;;11.10
56286;BMP180;42191;47.562;9.686;2022-11-20T05:39:48;96501.00;;;11.10
56286;BMP180;42191;47.562;9.686;2022-11-20T05:42:14;96502.00;;;11.20
56286;BMP180;42191;47.562;9.686;2022-11-20T05:45:03;96504.00;;;11.20
56286;BMP180;42191;47.562;9.686;2022-11-20T05:47:33;96492.00;;;11.20
56286;BMP180;42191;47.562;9.686;2022-11-20T05:49:59;96505.00;;;11.20
56286;BMP180;42191;47.562;9.686;2022-11-20T05:52:28;96492.00;;;11.20
56286;BMP180;42191;47.562;9.686;2022-11-20T05:54:54;96502.00;;;11.20
56286;BMP180;42191;47.562;9.686;2022-11-20T05:57:20;96504.00;;;11.20
56286;BMP180;42191;47.562;9.686;2022-11-20T05:59:46;96496.00;;;11.30
56286;BMP180;42191;47.562;9.686;2022-11-20T06:02:12;96499.00;;;11.20
56286;BMP180;42191;47.562;9.686;2022-11-20T06:04:38;96496.00;;;11.30
56286;BMP180;42191;47.562;9.686;2022-11-20T06:07:08;96510.00;;;11.30
56286;BMP180;42191;47.562;9.686;2022-11-20T06:09:34;96497.00;;;11.30
56286;BMP180;42191;47.562;9.686;2022-11-20T06:12:00;96503.00;;;11.30
56286;BMP180;42191;47.562;9.686;2022-11-20T06:14:26;96502.00;;;11.40
56286;BMP180;42191;47.562;9.686;2022-11-20T06:16:52;96502.00;;;11.30
56286;BMP180;42191;47.562;9.686;2022-11-20T06:19:19;96507.00;;;11.40
56286;BMP180;42191;47.562;9.686;2022-11-20T06:21:45;96505.00;;;11.40
56286;BMP180;42191;47.562;9.686;2022-11-20T06:24:13;96503.00;;;11.40
56286;BMP180;42191;47.562;9.686;2022-11-20T06:26:39;96508.00;;;11.40
56286;BMP180;42191;47.562;9.686;2022-11-20T06:29:05;96511.00;;;11.40
56286;BMP180;42191;47.562;9.686;2022-11-20T06:31:31;96507.00;;;11.40
56286;BMP180;42191;47.562;9.686;2022-11-20T06:34:01;96510.00;;;11.40
56286;BMP180;42191;47.562;9.686;2022-11-20T06:36:27;96507.00;;;11.40
56286;BMP180;42191;47.562;9.686;2022-11-20T06:38:53;96512.00;;;11.50
56286;BMP180;42191;47.562;9.686;2022-11-20T06:41:21;96512.00;;;11.50
56286;BMP180;42191;47.562;9.686;2022-11-20T06:43:48;96517.00;;;11.50
56286;BMP180;42191;47.562;9.686;2022-11-20T06:46:16;96524.00;;;11.50
56286;BMP180;42191;47.562;9.686;2022-11-20T06:48:43;96521.00;;;11.50
56286;BMP180;42191;47.562;9.686;2022-11-20T06:51:09;96524.00;;;11.50
56286;BMP180;42191;47.562;9.686;2022-11-20T06:53:36;96531.00;;;11.50
56286;BMP180;42191;47.562;9.686;2022-11-20T06:56:03;96514.00;;;11.50
56286;BMP180;42191;47.562;9.686;2022-11-20T06:58:31;96530.00;;;11.60
56286;BMP180;42191;47.562;9.686;2022-11-20T07:01:05;96534.00;;;11.60
56286;BMP180;42191;47.562;9.686;2022-11-20T07:03:32;96522.00;;;11.60
56286;BMP180;42191;47.562;9.686;2022-11-20T07:05:59;96547.00;;;11.60
56286;BMP180;42191;47.562;9.686;2022-11-20T07:08:26;96543.00;;;11.60
56286;BMP180;42191;47.562;9.686;2022-11-20T07:10:52;96542.00;;;11.70
56286;BMP180;42191;47.562;9.686;2022-11-20T07:13:18;96545.00;;;11.70
56286;BMP180;42191;47.562;9.686;2022-11-20T07:15:45;96555.00;;;11.70
56286;BMP180;42191;47.562;9.686;2022-11-20T07:18:11;96549.00;;;11.70
56286;BMP180;42191;47.562;9.686;2022-11-20T07:20:37;96560.00;;;11.70
56286;BMP180;42191;47.562;9.686;2022-11-20T07:23:03;96557.00;;;11.70
56286;BMP180;42191;47.562;9.686;2022-11-20T07:25:29;96560.00;;;11.70
56286;BMP180;42191;47.562;9.686;2022-11-20T07:28:00;96553.00;;;11.70
56286;BMP180;42191;47.562;9.686;2022-11-20T07:30:29;96564.00;;;11.80
56286;BMP180;42191;47.562;9.686;2022-11-20T07:32:56;96555.00;;;11.80
56286;BMP180;42191;47.562;9.686;2022-11-20T07:35:26;96551.00;;;11.80
56286;BMP180;42191;47.562;9.686;2022-11-20T07:37:52;96558.00;;;11.80
56286;BMP180;42191;47.562;9.686;2022-11-20T07:40:19;96563.00;;;11.80
56286;BMP180;42191;47.562;9.686;2022-11-20T07:42:53;96559.00;;;11.80
56286;BMP180;42191;47.562;9.686;2022-11-20T07:45:21;96560.00;;;11.90
56286;BMP180;42191;47.562;9.686;2022-11-20T07:47:47;96568.00;;;11.90
56286;BMP180;42191;47.562;9.686;2022-11-20T07:50:13;96558.00;;;11.90
56286;BMP180;42191;47.562;9.686;2022-11-20T07:52:39;96572.00;;;11.90
56286;BMP180;42191;47.562;9.686;2022-11-20T07:55:07;96573.00;;;11.90
56286;BMP180;42191;47.562;9.686;2022-11-20T07:57:33;96566.00;;;12.00
56286;BMP180;42191;47.562;9.686;2022-11-20T07:59:59;96567.00;;;12.00
56286;BMP180;42191;47.562;9.686;2022-11-20T08:02:25;96573.00;;;12.00
56286;BMP180;42191;47.562;9.686;2022-11-20T08:04:52;96571.00;;;12.00
56286;BMP180;42191;47.562;9.686;2022-11-20T08:07:18;96557.00;;;12.00
56286;BMP180;42191;47.562;9.686;2022-11-20T08:09:45;96563.00;;;12.10
56286;BMP180;42191;47.562;9.686;2022-11-20T08:12:19;96549.00;;;12.10
56286;BMP180;42191;47.562;9.686;2022-11-20T08:15:05;96549.00;;;12.10
56286;BMP180;42191;47.562;9.686;2022-11-20T08:17:31;96555.00;;;12.10
56286;BMP180;42191;47.562;9.686;2022-11-20T08:20:00;96543.00;;;12.20
56286;BMP180;42191;47.562;9.686;2022-11-20T08:22:35;96550.00;;;12.20
56286;BMP180;42191;47.562;9.686;2022-11-20T08:25:11;96557.00;;;12.30
56286;BMP180;42191;47.562;9.686;2022-11-20T08:27:37;96560.00;;;12.30
56286;BMP180;42191;47.562;9.686;2022-11-20T08:30:03;96551.00;;;12.40
56286;BMP180;42191;47.562;9.686;2022-11-20T08:32:30;96550.00;;;12.40
56286;BMP180;42191;47.562;9.686;2022-11-20T08:34:56;96556.00;;;12.50
56286;BMP180;42191;47.562;9.686;2022-11-20T08:37:23;96550.00;;;12.60
56286;BMP180;42191;47.562;9.686;2022-11-20T08:40:11;96574.00;;;12.60
56286;BMP180;42191;47.562;9.686;2022-11-20T08:42:50;96560.00;;;12.60
56286;BMP180;42191;47.562;9.686;2022-11-20T08:45:19;96554.00;;;12.60
56286;BMP180;42191;47.562;9.686;2022-11-20T08:47:46;96558.00;;;12.70
56286;BMP180;42191;47.562;9.686;2022-11-20T08:50:14;96554.00;;;12.70
56286;BMP180;42191;47.562;9.686;2022-11-20T08:52:40;96555.00;;;12.70
56286;BMP180;42191;47.562;9.686;2022-11-20T08:55:07;96558.00;;;12.70
56286;BMP180;42191;47.562;9.686;2022-11-20T08:57:37;96555.00;;;12.70
56286;BMP180;42191;47.562;9.686;2022-11-20T09:00:06;96557.00;;;12.70
56286;BMP180;42191;47.562;9.686;2022-11-20T09:02:32;96554.00;;;12.80
56286;BMP180;42191;47.562;9.686;2022-11-20T09:04:58;96560.00;;;12.90
56286;BMP180;42191;47.562;9.686;2022-11-20T09:07:25;96553.00;;;13.00
56286;BMP180;42191;47.562;9.686;2022-11-20T09:09:51;96554.00;;;13.10
56286;BMP180;42191;47.562;9.686;2022-11-20T09:12:17;96562.00;;;13.20
56286;BMP180;42191;47.562;9.686;2022-11-20T09:14:43;96567.00;;;13.30
56286;BMP180;42191;47.562;9.686;2022-11-20T09:17:10;96571.00;;;13.30
56286;BMP180;42191;47.562;9.686;2022-11-20T09:19:39;96584.00;;;13.30
56286;BMP180;42191;47.562;9.686;2022-11-20T09:22:06;96570.00;;;13.30
56286;BMP180;42191;47.562;9.686;2022-11-20T09:24:32;96571.00;;;13.30
56286;BMP180;42191;47.562;9.686;2022-11-20T09:26:58;96570.00;;;13.30
56286;BMP180;42191;47.562;9.686;2022-11-20T09:29:26;96572.00;;;13.30
56286;BMP180;42191;47.562;9.686;2022-11-20T09:31:52;96576.00;;;13.30
56286;BMP180;42191;47.562;9.686;2022-11-20T09:34:18;96585.00;;;13.30
56286;BMP180;42191;47.562;9.686;2022-11-20T09:36:45;96560.00;;;13.30
56286;BMP180;42191;47.562;9.686;2022-11-20T09:39:11;96568.00;;;13.30
56286;BMP180;42191;47.562;9.686;2022-11-20T09:44:28;96555.00;;;13.30
56286;BMP180;42191;47.562;9.686;2022-11-20T09:47:01;96566.00;;;13.30
56286;BMP180;42191;47.562;9.686;2022-11-20T09:52:21;96559.00;;;13.40
56286;BMP180;42191;47.562;9.686;2022-11-20T09:54:51;96562.00;;;13.40
56286;BMP180;42191;47.562;9.686;2022-11-20T09:57:30;96560.00;;;13.40
56286;BMP180;42191;47.562;9.686;2022-11-20T10:00:01;96566.00;;;13.40
56286;BMP180;42191;47.562;9.686;2022-11-20T10:05:23;96566.00;;;13.50
56286;BMP180;42191;47.562;9.686;2022-11-20T10:08:13;96557.00;;;13.50
56286;BMP180;42191;47.562;9.686;2022-11-20T10:10:45;96569.00;;;13.50
56286;BMP180;42191;47.562;9.686;2022-11-20T10:16:15;96566.00;;;13.50
56286;BMP180;42191;47.562;9.686;2022-11-20T10:19:20;96564.00;;;13.40
56286;BMP180;42191;47.562;9.686;2022-11-20T10:27:05;96542.00;;;13.40
56286;BMP180;42191;47.562;9.686;2022-11-20T10:29:34;96544.00;;;13.40
56286;BMP180;42191;47.562;9.686;2022-11-20T10:32:11;96544.00;;;13.40
56286;BMP180;42191;47.562;9.686;2022-11-20T10:37:23;96552.00;;;13.50
56286;BMP180;42191;47.562;9.686;2022-11-20T10:42:35;96554.00;;;13.50
56286;BMP180;42191;47.562;9.686;2022-11-20T10:50:36;96544.00;;;13.50
56286;BMP180;42191;47.562;9.686;2022-11-20T10:53:27;96552.00;;;13.60
56286;BMP180;42191;47.562;9.686;2022-11-20T10:56:04;96550.00;;;13.60
56286;BMP180;42191;47.562;9.686;2022-11-20T10:58:45;96539.00;;;13.60
56286;BMP180;42191;47.562;9.686;2022-11-20T11:01:16;96544.00;;;13.70
56286;BMP180;42191;47.562;9.686;2022-11-20T11:03:42;96539.00;;;13.70
56286;BMP180;42191;47.562;9.686;2022-11-20T11:09:04;96549.00;;;13.70
56286;BMP180;42191;47.562;9.686;2022-11-20T11:11:34;96547.00;;;13.70
56286;BMP180;42191;47.562;9.686;2022-11-20T11:14:14;96540.00;;;13.60
56286;BMP180;42191;47.562;9.686;2022-11-20T11:16:56;96540.00;;;13.70
56286;BMP180;42191;47.562;9.686;2022-11-20T11:19:23;96541.00;;;13.70
56286;BMP180;42191;47.562;9.686;2022-11-20T11:21:53;96540.00;;;13.70
56286;BMP180;42191;47.562;9.686;2022-11-20T11:24:29;96539.00;;;13.70
56286;BMP180;42191;47.562;9.686;2022-11-20T11:27:09;96533.00;;;13.70
56286;BMP180;42191;47.562;9.686;2022-11-20T11:29:39;96524.00;;;13.70
56286;BMP180;42191;47.562;9.686;2022-11-20T11:32:21;96528.00;;;13.70
56286;BMP180;42191;47.562;9.686;2022-11-20T11:35:02;96527.00;;;13.70
56286;BMP180;42191;47.562;9.686;2022-11-20T11:37:37;96515.00;;;13.70
56286;BMP180;42191;47.562;9.686;2022-11-20T11:40:10;96518.00;;;13.70
56286;BMP180;42191;47.562;9.686;2022-11-20T11:42:42;96510.00;;;13.70
56286;BMP180;42191;47.562;9.686;2022-11-20T11:45:15;96515.00;;;13.70
56286;BMP180;42191;47.562;9.686;2022-11-20T11:58:44;96489.00;;;13.80
56286;BMP180;42191;47.562;9.686;2022-11-20T12:01:34;96502.00;;;13.80
56286;BMP180;42191;47.562;9.686;2022-11-20T12:06:32;96486.00;;;13.70
56286;BMP180;42191;47.562;9.686;2022-11-20T12:09:08;96512.00;;;13.70
56286;BMP180;42191;47.562;9.686;2022-11-20T12:11:45;96492.00;;;13.70
56286;BMP180;42191;47.562;9.686;2022-11-20T12:14:24;96503.00;;;13.70
56286;BMP180;42191;47.562;9.686;2022-11-20T12:16:52;96504.00;;;13.60
56286;BMP180;42191;47.562;9.686;2022-11-20T12:19:20;96498.00;;;13.60
56286;BMP180;42191;47.562;9.686;2022-11-20T12:30:22;96488.00;;;13.50
56286;BMP180;42191;47.562;9.686;2022-11-20T12:32:52;96511.00;;;13.40
56286;BMP180;42191;47.562;9.686;2022-11-20T12:41:24;96478.00;;;13.40
56286;BMP180;42191;47.562;9.686;2022-11-20T12:52:53;96456.00;;;13.60
56286;BMP180;42191;47.562;9.686;2022-11-20T12:58:42;96460.00;;;13.70
56286;BMP180;42191;47.562;9.686;2022-11-20T13:04:18;96449.00;;;13.70
56286;BMP180;42191;47.562;9.686;2022-11-20T13:06:51;96435.00;;;13.80
56286;BMP180;42191;47.562;9.686;2022-11-20T13:09:19;96433.00;;;13.80
56286;BMP180;42191;47.562;9.686;2022-11-20T13:12:11;96436.00;;;13.90
56286;BMP180;42191;47.562;9.686;2022-11-20T13:17:24;96431.00;;;14.10
56286;BMP180;42191;47.562;9.686;2022-11-20T13:19:55;96425.00;;;14.10
56286;BMP180;42191;47.562;9.686;2022-11-20T13:22:29;96419.00;;;14.10
56286;BMP180;42191;47.562;9.686;2022-11-20T13:25:10;96419.00;;;14.10
56286;BMP180;42191;47.562;9.686;2022-11-20T13:27:36;96419.00;;;14.10
56286;BMP180;42191;47.562;9.686;2022-11-20T13:30:15;96422.00;;;14.20
56286;BMP180;42191;47.562;9.686;2022-11-20T13:33:21;96403.00;;;14.20
56286;BMP180;42191;47.562;9.686;2022-11-20T13:36:06;96401.00;;;14.30
56286;BMP180;42191;47.562;9.686;2022-11-20T13:38:48;96404.00;;;14.30
56286;BMP180;42191;47.562;9.686;2022-11-20T13:41:39;96389.00;;;14.40
56286;BMP180;42191;47.562;9.686;2022-11-20T13:46:53;96387.00;;;14.50
56286;BMP180;42191;47.562;9.686;2022-11-20T13:51:51;96372.00;;;14.60
56286;BMP180;42191;47.562;9.686;2022-11-20T13:57:22;96370.00;;;14.90
56286;BMP180;42191;47.562;9.686;2022-11-20T14:02:36;96372.00;;;15.60
56286;BMP180;42191;47.562;9.686;2022-11-20T14:05:04;96377.00;;;15.90
56286;BMP180;42191;47.562;9.686;2022-11-20T14:07:39;96375.00;;;16.10
56286;BMP180;42191;47.562;9.686;2022-11-20T14:10:19;96380.00;;;16.30
56286;BMP180;42191;47.562;9.686;2022-11-20T14:12:45;96374.00;;;16.50
56286;BMP180;42191;47.562;9.686;2022-11-20T14:15:30;96360.00;;;16.70
56286;BMP180;42191;47.562;9.686;2022-11-20T14:17:57;96367.00;;;16.90
56286;BMP180;42191;47.562;9.686;2022-11-20T14:20:27;96370.00;;;17.00
56286;BMP180;42191;47.562;9.686;2022-11-20T14:22:55;96372.00;;;17.20
56286;BMP180;42191;47.562;9.686;2022-11-20T14:25:23;96378.00;;;17.40
56286;BMP180;42191;47.562;9.686;2022-11-20T14:27:58;96370.00;;;17.60
56286;BMP180;42191;47.562;9.686;2022-11-20T14:33:03;96372.00;;;17.90
56286;BMP180;42191;47.562;9.686;2022-11-20T14:35:46;96365.00;;;18.00
56286;BMP180;42191;47.562;9.686;2022-11-20T14:38:13;96360.00;;;18.00
56286;BMP180;42191;47.562;9.686;2022-11-20T14:40:41;96364.00;;;18.10
56286;BMP180;42191;47.562;9.686;2022-11-20T14:43:23;96348.00;;;18.20
56286;BMP180;42191;47.562;9.686;2022-11-20T14:45:57;96358.00;;;18.30
56286;BMP180;42191;47.562;9.686;2022-11-20T14:48:29;96349.00;;;18.30
56286;BMP180;42191;47.562;9.686;2022-11-20T14:50:56;96346.00;;;18.30
56286;BMP180;42191;47.562;9.686;2022-11-20T14:53:23;96345.00;;;18.20
56286;BMP180;42191;47.562;9.686;2022-11-20T14:55:56;96337.00;;;18.10
56286;BMP180;42191;47.562;9.686;2022-11-20T14:58:28;96345.00;;;18.00
56286;BMP180;42191;47.562;9.686;2022-11-20T15:01:01;96353.00;;;17.90
56286;BMP180;42191;47.562;9.686;2022-11-20T15:03:36;96340.00;;;17.90
56286;BMP180;42191;47.562;9.686;2022-11-20T15:06:04;96343.00;;;17.90
56286;BMP180;42191;47.562;9.686;2022-11-20T15:08:30;96343.00;;;17.80
56286;BMP180;42191;47.562;9.686;2022-11-20T15:10:57;96352.00;;;17.70
56286;BMP180;42191;47.562;9.686;2022-11-20T15:13:30;96350.00;;;17.60
56286;BMP180;42191;47.562;9.686;2022-11-20T15:15:58;96344.00;;;17.30
56286;BMP180;42191;47.562;9.686;2022-11-20T15:18:45;96350.00;;;17.00
56286;BMP180;42191;47.562;9.686;2022-11-20T15:21:14;96349.00;;;16.70
56286;BMP180;42191;47.562;9.686;2022-11-20T15:23:41;96356.00;;;16.30
56286;BMP180;42191;47.562;9.686;2022-11-20T15:26:09;96352.00;;;16.00
56286;BMP180;42191;47.562;9.686;2022-11-20T15:28:43;96355.00;;;15.80
56286;BMP180;42191;47.562;9.686;2022-11-20T15:31:14;96354.00;;;15.50
56286;BMP180;42191;47.562;9.686;2022-11-20T15:33:41;96338.00;;;15.30
56286;BMP180;42191;47.562;9.686;2022-11-20T15:36:08;96338.00;;;15.10
56286;BMP180;42191;47.562;9.686;2022-11-20T15:38:35;96328.00;;;14.90
56286;BMP180;42191;47.562;9.686;2022-11-20T15:41:01;96322.00;;;14.70
56286;BMP180;42191;47.562;9.686;2022-11-20T15:43:27;96314.00;;;14.50
56286;BMP180;42191;47.562;9.686;2022-11-20T15:46:22;96323.00;;;14.30
56286;BMP180;42191;47.562;9.686;2022-11-20T15:48:55;96314.00;;;14.10
56286;BMP180;42191;47.562;9.686;2022-11-20T15:51:36;96321.00;;;14.00
56286;BMP180;42191;47.562;9.686;2022-11-20T15:54:16;96321.00;;;13.80
56286;BMP180;42191;47.562;9.686;2022-11-20T15:56:44;96320.00;;;13.70
56286;BMP180;42191;47.562;9.686;2022-11-20T15:59:10;96324.00;;;13.50